首页
METAR-TAF:

METAR-TAF

机场 :

傑克遜維爾, 北卡罗来纳州, 美国

纬度: 34-42-21N, 经度: 077-26-27W, 海拔: 7米

当前天气观测

该预报发布于1小时和1分钟前的20:56 UTC
风速7节,风向东北
温度 12°C
湿度 62%
气压 1024 hPa
能見度: 16.1公里
阴天层高于4200英尺

METAR: KNCA 262056Z 05007KT 10SM OVC042 12/05 A3025 RMK AO2 SLP245 T01170050 56014

时间: 16:57 (21:57 UTC)

预报

预报有效从26日的 21点(UTC)到 27日的 21点(UTC)
风速10节,风向东转东北
能见度10公里或以上
阴天层高于4000英尺
短暂存在
从 27日的 00点(UTC)到 27日的 06点(UTC)
风速10节,风向
能見度: 3200
多云层高于800英尺
阵雨, 轻雾
从 27日的 0700点(UTC)
风速5节,风向东转东南
能見度: 1600
多云层高于500英尺
轻雾
成为
从 27日的 14点(UTC)到 27日的 16点(UTC)
风速8节,风向南转西南
能见度10公里或以上
散云层高于3000英尺

TAF: KNCA 2621/2721 06010KT 9999 OVC040 QNH3017INS TEMPO 2700/2706 09010KT 3200 SHRA BR BKN008 FM270700 12005KT 1600 BR BKN005 QNH3014INS BECMG 2714/2716 20008KT 9999 SCT030 QNH3010INS T10/2700Z T22/2719Z

超过4000个机场的气象观测和天气预报(METAR&TAF报告)。

可查询的气象台以黄色和红色小点在地图上表示。

将鼠标移到小点上方,可查看气象台名称。

然后点击查看天气观测和预报。

如需切换地图:点击带黑十字的绿色按钮放大地图;点击带横线的绿色按钮缩小地图;或者点击绿色箭头查看邻近地区的地图。


METAR-TAF: